x

8519483 - Bergen Point West Reach, Nj (bgnn4) Weather Station

1:18am - Sat 26th Jul 2014 All times are EDT. -4 hours from GMT.

  • Wind
    6mph, 8mph gusts
  • Sea Temp 74°f
  • Air Temp 70°f
  • Sea Pressure 1016.1mb
  • 8519483 - Bergen Point West Reach, Nj
  • 8519483 - Bergen Point West Reach, Nj

More Historic Weather Station data

Upgrade to MSW Pro to gain access to the past 30 days of data for over 8000 Wavebouys and Weather Stations around the globe.

Join Pro

Comparision Forecast

View Surf forecast
   
Sat 07/26 1:18am 6 8 mph 1016.1mb 74f 70f
1:12am 3 7 mph 1016.1mb 74f 70f
1:06am 5 6 mph 1016.1mb 74f 70f
1:00am 5 9 mph 1016mb 74f 70f
12:54am 5 7 mph 1016.1mb 74f 70f
12:48am 5 6 mph 1016mb 74f 70f
12:42am 5 8 mph 1016mb 74f 71f
12:36am 6 8 mph 1016mb 74f 71f
12:30am 5 9 mph 1016mb 74f 71f
12:24am 5 8 mph 1016mb 74f 71f
12:18am 5 8 mph 1016mb 74f 71f
12:12am 6 9 mph 1016mb 74f 71f
12:06am 2 7 mph 1016mb 74f 71f
12:00am 2 7 mph 1015.9mb 74f 71f
Fri 07/25 11:54pm 3 6 mph 1016mb 74f 71f
11:48pm 3 5 mph 1015.9mb - 71f
11:42pm 1 6 mph 1016mb - 71f
11:36pm 2 5 mph 1016.1mb - 71f
11:30pm 2 5 mph 1016.2mb 74f 71f
11:24pm 2 3 mph 1016.3mb 74f 71f
11:18pm 1 3 mph 1016.3mb 74f 72f
11:12pm  -  3 mph 1016.3mb 74f 72f
11:06pm 2 5 mph 1016.3mb 74f 72f
11:00pm 1 6 mph 1016.2mb 74f 72f
10:54pm 3 7 mph 1016.2mb 74f 72f
10:48pm 2 6 mph 1016.3mb 74f -
10:42pm 5 8 mph 1016.3mb - 72f
10:36pm  -  mph 1016.3mb 74f 73f
10:30pm  -  mph - - 73f
10:24pm 2 8 mph - 74f 73f
10:18pm 5 10 mph - 74f 73f
10:12pm 3 11 mph 1016.4mb 74f 73f
10:06pm 3 9 mph 1016.4mb 74f 73f
10:00pm 5 8 mph 1016.4mb 74f 73f
9:54pm 3 9 mph 1016.5mb 74f 73f
9:48pm  -  mph 1016.6mb 74f 74f
9:42pm  -  mph 1016.6mb 74f 74f
9:36pm  -  mph 1016.5mb 74f 74f
9:30pm 3 8 mph 1016.5mb 74f 74f
9:24pm 3 8 mph 1016.5mb 74f 74f
9:18pm 5 9 mph 1016.5mb 74f 74f
9:12pm 6 10 mph 1016.5mb 74f 74f
9:06pm 6 9 mph 1016.4mb 74f 75f
9:00pm 8 13 mph 1016.4mb 74f 75f
8:54pm 5 9 mph 1016.2mb 74f 75f
8:48pm 7 10 mph 1016.1mb 74f 75f
8:42pm 5 10 mph 1016mb 74f 75f
8:36pm 7 10 mph 1015.8mb 74f 75f
8:30pm 5 13 mph 1015.8mb 74f 75f
8:24pm 5 11 mph 1015.8mb 74f 76f
8:18pm 5 11 mph 1015.8mb 74f 76f
8:12pm 7 14 mph 1015.7mb 74f 76f
8:06pm 10 15 mph 1015.6mb 74f 76f
8:00pm 9 13 mph 1015.5mb 74f 77f
7:54pm 9 15 mph 1015.5mb 74f 77f
7:48pm 9 13 mph 1015.4mb 74f 77f
7:42pm 9 14 mph 1015.4mb 74f 77f
7:36pm 8 11 mph 1015.3mb 74f 77f
7:30pm 9 11 mph 1015.4mb 74f 78f
7:24pm 6 10 mph 1015.4mb 74f 78f
7:18pm 6 11 mph 1015.3mb 74f 78f
7:12pm 8 14 mph 1015.2mb 74f 79f
7:06pm 7 14 mph 1015.2mb 74f 79f
7:00pm 5 13 mph 1015.1mb 74f 79f
6:54pm 7 14 mph 1015mb 74f 79f
6:48pm 8 14 mph 1014.9mb 74f 79f
6:42pm 7 11 mph 1014.9mb 74f 79f
6:36pm 8 15 mph 1014.9mb 74f 79f
6:30pm 9 16 mph 1014.9mb 74f 79f
6:24pm 7 11 mph 1014.8mb 74f 80f
6:18pm 8 13 mph 1014.9mb 74f 79f
6:12pm 6 11 mph 1014.8mb 74f 79f
6:06pm 7 10 mph 1014.8mb 74f 80f
6:00pm 8 11 mph 1014.8mb 74f 80f
5:54pm 9 13 mph 1014.8mb 74f 80f
5:48pm 7 10 mph 1014.8mb 74f 80f
5:42pm 7 10 mph 1014.8mb 74f 80f
5:36pm 6 9 mph 1014.7mb 74f 80f
5:30pm 1 5 mph 1014.7mb 74f 80f
5:24pm 3 5 mph 1014.6mb 74f 80f
5:18pm 3 5 mph 1014.5mb 74f 81f
5:12pm 2 5 mph 1014.4mb 74f 81f
5:06pm 2 6 mph 1014.5mb 74f 82f
5:00pm  -  1 mph 1014.4mb 74f 82f
4:54pm 1 2 mph 1014.5mb 75f 81f
4:48pm 1 3 mph 1014.6mb 75f 81f
4:42pm 2
mph
1014.6mb 75f 80f
4:36pm 1 2 mph 1014.7mb 75f 80f
4:30pm 2
mph
1014.8mb 75f 80f
4:24pm 1 2 mph 1015mb 75f 80f
4:18pm 2 3 mph 1015mb 75f 80f
4:12pm 3
mph
1015mb 75f 81f
4:06pm 2
mph
1015mb 75f 80f
4:00pm 1 3 mph 1015.1mb 75f 80f
3:54pm 2 3 mph 1015.1mb 75f 80f
3:48pm 2 5 mph 1015.2mb 75f 79f
3:42pm 3 6 mph 1015.2mb 75f 80f
3:36pm 5 6 mph 1015.2mb 75f 79f
3:30pm 2 5 mph 1015.3mb 75f 79f
3:24pm 5 6 mph 1015.4mb 75f 79f
3:18pm 3 5 mph 1015.4mb 75f 79f
3:12pm 2 3 mph 1015.3mb 75f 79f
3:06pm 3
mph
1015.4mb 75f 79f
3:00pm 2 3 mph 1015.5mb 75f 79f
2:54pm 5 8 mph 1015.6mb 76f 79f
2:48pm 6 7 mph 1015.7mb 76f 78f
2:42pm 3 5 mph 1015.7mb 76f 79f
2:36pm 5 6 mph 1015.8mb 76f 79f
2:30pm 3 10 mph 1015.8mb 76f 78f
2:24pm 5 7 mph 1015.7mb 76f 78f
2:18pm 3 8 mph 1015.6mb 76f 78f
2:12pm 7 8 mph 1015.5mb 75f 78f
2:06pm 3 5 mph 1015.6mb 75f 78f
2:00pm  -  2 mph 1015.7mb 75f 78f
1:54pm 2 3 mph 1015.8mb 75f 78f
1:48pm 3 5 mph 1015.8mb 75f 78f